createdAt,value
2018-04-16T00:00:35.867Z,10.64
2018-04-16T00:01:35.841Z,10.55
2018-04-16T00:02:35.827Z,10.5
2018-04-16T00:03:35.835Z,10.42
2018-04-16T00:04:35.835Z,10.46
2018-04-16T00:05:35.847Z,10.45
2018-04-16T00:06:35.839Z,10.5
2018-04-16T00:07:35.827Z,10.5
2018-04-16T00:09:35.822Z,10.51
2018-04-16T00:10:35.876Z,10.52
2018-04-16T00:11:35.854Z,10.41
2018-04-16T00:12:35.829Z,10.46
2018-04-16T00:13:35.856Z,10.42
2018-04-16T00:14:35.849Z,10.43
2018-04-16T00:15:35.850Z,10.35
2018-04-16T00:16:35.803Z,10.36
2018-04-16T00:17:35.809Z,10.42
2018-04-16T00:18:35.841Z,10.46
2018-04-16T00:19:35.815Z,10.33
2018-04-16T00:20:35.818Z,10.42
2018-04-16T00:21:35.832Z,10.36
2018-04-16T00:22:35.819Z,10.46
2018-04-16T00:23:35.873Z,10.54
2018-04-16T00:24:35.853Z,10.47
2018-04-16T00:25:35.810Z,10.48
2018-04-16T00:26:35.797Z,10.51
2018-04-16T00:27:35.818Z,10.34
2018-04-16T00:28:35.791Z,10.34
2018-04-16T00:29:35.830Z,10.41
2018-04-16T00:30:35.855Z,10.43
2018-04-16T00:31:35.789Z,10.5
2018-04-16T00:32:36.272Z,10.55
2018-04-16T00:33:35.803Z,10.51
2018-04-16T00:34:35.827Z,10.49
2018-04-16T00:35:35.811Z,10.54
2018-04-16T00:36:35.822Z,10.36
2018-04-16T00:37:35.803Z,10.4
2018-04-16T00:38:35.783Z,10.52
2018-04-16T00:39:35.778Z,10.48
2018-04-16T00:40:35.795Z,10.52
2018-04-16T00:41:35.788Z,10.46
2018-04-16T00:42:35.815Z,10.53
2018-04-16T00:43:35.776Z,10.42
2018-04-16T00:44:35.891Z,10.47
2018-04-16T00:45:35.790Z,10.47
2018-04-16T00:46:35.865Z,10.48
2018-04-16T00:47:35.798Z,10.44
2018-04-16T00:48:35.762Z,10.42
2018-04-16T00:49:35.787Z,10.45
2018-04-16T00:50:35.783Z,10.39
2018-04-16T00:51:35.785Z,10.38
2018-04-16T00:52:35.891Z,10.37
2018-04-16T00:53:35.781Z,10.35
2018-04-16T00:54:35.810Z,10.28
2018-04-16T00:55:35.768Z,10.17
2018-04-16T00:56:35.746Z,10.2
2018-04-16T00:57:35.918Z,10.24
2018-04-16T00:58:35.768Z,10.22
2018-04-16T00:59:35.742Z,10.26
2018-04-16T01:00:35.762Z,10.44
2018-04-16T01:01:35.761Z,10.42
2018-04-16T01:02:35.773Z,10.47
2018-04-16T01:03:35.757Z,10.5
2018-04-16T01:04:35.745Z,10.52
2018-04-16T01:05:35.756Z,10.53
2018-04-16T01:06:35.754Z,10.53
2018-04-16T01:07:35.734Z,10.42
2018-04-16T01:08:35.764Z,10.47
2018-04-16T01:09:35.748Z,10.36
2018-04-16T01:10:35.755Z,10.29
2018-04-16T01:11:35.736Z,10.29
2018-04-16T01:12:35.745Z,10.46
2018-04-16T01:13:35.765Z,10.47
2018-04-16T01:14:35.753Z,10.35
2018-04-16T01:15:35.778Z,10.35
2018-04-16T01:16:35.738Z,10.31
2018-04-16T01:17:35.907Z,10.24
2018-04-16T01:18:35.755Z,10.27
2018-04-16T01:19:35.735Z,10.2
2018-04-16T01:20:35.722Z,10.21
2018-04-16T01:21:35.727Z,10.3
2018-04-16T01:22:35.750Z,10.26
2018-04-16T01:23:35.722Z,10.41
2018-04-16T01:24:35.732Z,10.32
2018-04-16T01:25:35.731Z,10.33
2018-04-16T01:26:35.743Z,10.29
2018-04-16T01:27:35.720Z,10.25
2018-04-16T01:28:35.721Z,10.46
2018-04-16T01:29:35.868Z,10.35
2018-04-16T01:30:35.743Z,10.42
2018-04-16T01:31:35.711Z,10.4
2018-04-16T01:32:35.834Z,10.31
2018-04-16T01:33:35.712Z,10.34
2018-04-16T01:34:35.754Z,10.28
2018-04-16T01:35:35.813Z,10.33
2018-04-16T01:36:35.705Z,10.2
2018-04-16T01:37:35.757Z,10.16
2018-04-16T01:38:35.720Z,10.15
2018-04-16T01:39:35.719Z,10.18
2018-04-16T01:40:35.731Z,10.28
2018-04-16T01:41:35.708Z,10.27
2018-04-16T01:42:35.734Z,10.23
2018-04-16T01:43:35.705Z,10.18
2018-04-16T01:44:35.724Z,10.15
2018-04-16T01:45:35.705Z,10.16
2018-04-16T01:46:35.714Z,10.15
2018-04-16T01:47:35.701Z,10.26
2018-04-16T01:48:35.720Z,10.31
2018-04-16T01:49:35.874Z,10.23
2018-04-16T01:50:35.733Z,10.15
2018-04-16T01:51:35.706Z,10.14
2018-04-16T01:52:35.694Z,10.16
2018-04-16T01:53:35.681Z,10.11
2018-04-16T01:54:35.726Z,10.24
2018-04-16T01:55:35.706Z,10.28
2018-04-16T01:56:35.711Z,10.2
2018-04-16T01:57:35.769Z,10.27
2018-04-16T01:58:35.694Z,10.23
2018-04-16T01:59:35.689Z,10.31
2018-04-16T02:00:35.691Z,10.3
2018-04-16T02:01:35.761Z,10.25
2018-04-16T02:02:35.707Z,10.19
2018-04-16T02:03:35.673Z,10.21
2018-04-16T02:04:35.678Z,10.15
2018-04-16T02:05:35.692Z,10.25
2018-04-16T02:06:35.683Z,10.22
2018-04-16T02:07:35.668Z,10.48
2018-04-16T02:08:35.669Z,10.39
2018-04-16T02:09:35.658Z,10.28
2018-04-16T02:10:35.699Z,10.21
2018-04-16T02:11:36.067Z,10.35
2018-04-16T02:12:35.667Z,10.31
2018-04-16T02:13:35.672Z,10.25
2018-04-16T02:14:35.702Z,10.21
2018-04-16T02:15:35.698Z,10.25
2018-04-16T02:16:35.708Z,10.21
2018-04-16T02:17:35.666Z,10.17
2018-04-16T02:18:35.655Z,10.18
2018-04-16T02:19:35.673Z,10.16
2018-04-16T02:20:35.645Z,10.16
2018-04-16T02:21:35.633Z,10.17
2018-04-16T02:22:35.702Z,10.18
2018-04-16T02:23:35.718Z,10.19
2018-04-16T02:24:35.633Z,10.13
2018-04-16T02:25:35.664Z,10.11
2018-04-16T02:26:35.675Z,10.14
2018-04-16T02:27:35.710Z,10.11
2018-04-16T02:28:35.663Z,10.07
2018-04-16T02:29:35.632Z,10.08
2018-04-16T02:30:35.712Z,10.18
2018-04-16T02:31:35.705Z,10.07
2018-04-16T02:32:35.662Z,10.07
2018-04-16T02:33:35.640Z,10.13
2018-04-16T02:34:35.632Z,10.12
2018-04-16T02:35:35.860Z,10.12
2018-04-16T02:36:35.680Z,10.14
2018-04-16T02:37:35.640Z,10.14
2018-04-16T02:38:35.665Z,10.2
2018-04-16T02:39:35.646Z,10.13
2018-04-16T02:40:35.690Z,10.18
2018-04-16T02:41:35.642Z,10.2
2018-04-16T02:42:35.629Z,10.17
2018-04-16T02:43:35.643Z,10.16
2018-04-16T02:44:35.668Z,10.22
2018-04-16T02:45:35.604Z,10.19
2018-04-16T02:46:35.744Z,10.25
2018-04-16T02:47:35.639Z,10.19
2018-04-16T02:48:35.615Z,10.16
2018-04-16T02:49:35.649Z,10.26
2018-04-16T02:50:35.644Z,10.12
2018-04-16T02:51:35.615Z,10.13
2018-04-16T02:52:35.611Z,10.23
2018-04-16T02:53:35.616Z,10.22
2018-04-16T02:54:35.596Z,10.25
2018-04-16T02:55:35.634Z,10.22
2018-04-16T02:56:35.611Z,10.15
2018-04-16T02:57:35.599Z,10.12
2018-04-16T02:58:35.615Z,10.14
2018-04-16T02:59:35.634Z,10.2
2018-04-16T03:00:35.638Z,10.26
2018-04-16T03:01:35.618Z,10.25
2018-04-16T03:02:35.619Z,10.25
2018-04-16T03:03:35.604Z,10.2
2018-04-16T03:04:35.672Z,10.26
2018-04-16T03:05:35.619Z,10.26
2018-04-16T03:06:35.609Z,10.25
2018-04-16T03:07:35.622Z,10.2
2018-04-16T03:08:35.604Z,10.16
2018-04-16T03:09:35.593Z,10.25
2018-04-16T03:10:35.590Z,10.16
2018-04-16T03:11:35.623Z,10.26
2018-04-16T03:12:36.026Z,10.17
2018-04-16T03:13:35.664Z,10.16
2018-04-16T03:14:35.627Z,10.21
2018-04-16T03:15:35.590Z,10.21
2018-04-16T03:16:35.588Z,10.18
2018-04-16T03:17:35.625Z,10.19
2018-04-16T03:18:35.606Z,10.21
2018-04-16T03:19:35.608Z,10.16
2018-04-16T03:20:35.595Z,10.16
2018-04-16T03:21:35.569Z,10.13
2018-04-16T03:22:35.605Z,10.14
2018-04-16T03:23:35.554Z,10.14
2018-04-16T03:24:35.602Z,10.23
2018-04-16T03:25:35.838Z,10.23
2018-04-16T03:26:35.576Z,10.16
2018-04-16T03:27:35.578Z,10.29
2018-04-16T03:28:35.563Z,10.21
2018-04-16T03:29:35.549Z,10.27
2018-04-16T03:30:35.606Z,10.2
2018-04-16T03:31:35.654Z,10.19
2018-04-16T03:32:35.661Z,10.15
2018-04-16T03:33:35.572Z,10.18
2018-04-16T03:34:35.557Z,10.2
2018-04-16T03:35:35.679Z,10.17
2018-04-16T03:36:35.581Z,10.18
2018-04-16T03:37:35.631Z,10.24
2018-04-16T03:38:35.543Z,10.35
2018-04-16T03:39:35.562Z,10.21
2018-04-16T03:40:35.549Z,10.26
2018-04-16T03:41:35.557Z,10.33
2018-04-16T03:42:35.595Z,10.22
2018-04-16T03:43:35.571Z,10.18
2018-04-16T03:44:35.714Z,10.15
2018-04-16T03:45:35.531Z,10.14
2018-04-16T03:46:35.565Z,10.17
2018-04-16T03:47:35.547Z,10.14
2018-04-16T03:48:35.523Z,10.15
2018-04-16T03:49:35.551Z,10.23
2018-04-16T03:50:35.583Z,10.17
2018-04-16T03:51:35.541Z,10.17
2018-04-16T03:52:35.539Z,10.24
2018-04-16T03:53:35.545Z,10.25
2018-04-16T03:54:35.516Z,10.21
2018-04-16T03:55:35.526Z,10.26
2018-04-16T03:56:35.538Z,10.24
2018-04-16T03:57:35.590Z,10.27
2018-04-16T03:58:35.614Z,10.29
2018-04-16T03:59:35.531Z,10.23
2018-04-16T04:00:35.511Z,10.17
2018-04-16T04:01:35.527Z,10.17
2018-04-16T04:02:35.495Z,10.14
2018-04-16T04:03:35.501Z,10.19
2018-04-16T04:04:35.508Z,10.21
2018-04-16T04:05:35.506Z,10.16
2018-04-16T04:06:35.520Z,10.25
2018-04-16T04:07:35.541Z,10.19
2018-04-16T04:08:35.479Z,10.22
2018-04-16T04:09:35.490Z,10.23
2018-04-16T04:10:35.521Z,10.26
2018-04-16T04:11:35.562Z,10.2
2018-04-16T04:12:35.507Z,10.14
2018-04-16T04:13:35.489Z,10.11
2018-04-16T04:14:35.494Z,10.2
2018-04-16T04:15:35.486Z,10.11
2018-04-16T04:16:35.489Z,10.15
2018-04-16T04:17:35.550Z,10.11
2018-04-16T04:18:35.528Z,10.13
2018-04-16T04:19:35.531Z,10.08
2018-04-16T04:20:35.555Z,10.05
2018-04-16T04:21:35.485Z,10.06
2018-04-16T04:22:35.481Z,10.09
2018-04-16T04:23:35.473Z,10.14
2018-04-16T04:24:35.461Z,10.08
2018-04-16T04:25:35.484Z,10.04
2018-04-16T04:26:35.446Z,10
2018-04-16T04:27:35.491Z,10.11
2018-04-16T04:28:35.484Z,10.07
2018-04-16T04:29:35.451Z,10.09
2018-04-16T04:30:35.469Z,10.05
2018-04-16T04:31:35.449Z,10.08
2018-04-16T04:32:35.470Z,10.05
2018-04-16T04:33:35.490Z,9.99
2018-04-16T04:34:35.508Z,10.01
2018-04-16T04:35:35.475Z,10.04
2018-04-16T04:36:35.477Z,10.03
2018-04-16T04:37:35.578Z,10.02
2018-04-16T04:38:35.526Z,10.04
2018-04-16T04:39:35.456Z,9.98
2018-04-16T04:40:35.496Z,10.16
2018-04-16T04:41:35.433Z,10.01
2018-04-16T04:42:35.459Z,10.01
2018-04-16T04:43:35.589Z,9.99
2018-04-16T04:44:35.448Z,10.02
2018-04-16T04:45:35.513Z,10.01
2018-04-16T04:46:35.445Z,10.02
2018-04-16T04:47:35.442Z,10.07
2018-04-16T04:48:35.656Z,10.14
2018-04-16T04:49:35.449Z,10.02
2018-04-16T04:50:35.446Z,10.01
2018-04-16T04:51:35.454Z,9.99
2018-04-16T04:52:35.460Z,9.95
2018-04-16T04:53:35.454Z,9.98
2018-04-16T04:54:35.494Z,10
2018-04-16T04:55:35.495Z,10.01
2018-04-16T04:56:35.414Z,9.92
2018-04-16T04:57:35.438Z,10.15
2018-04-16T04:58:35.442Z,10.07
2018-04-16T04:59:35.435Z,10.11
2018-04-16T05:00:35.482Z,10.12
2018-04-16T05:01:35.437Z,10.02
2018-04-16T05:02:35.436Z,10.02
2018-04-16T05:03:35.483Z,10.03
2018-04-16T05:04:35.412Z,10
2018-04-16T05:05:35.468Z,10.08
2018-04-16T05:06:35.861Z,10.09
2018-04-16T05:07:35.411Z,10.08
2018-04-16T05:08:35.444Z,9.93
2018-04-16T05:09:35.435Z,10.07
2018-04-16T05:10:35.441Z,10.01
2018-04-16T05:11:35.466Z,9.92
2018-04-16T05:12:35.459Z,9.95
2018-04-16T05:13:35.460Z,9.94
2018-04-16T05:14:35.423Z,9.92
2018-04-16T05:15:35.417Z,9.92
2018-04-16T05:16:35.400Z,9.93
2018-04-16T05:17:35.408Z,9.99
2018-04-16T05:18:35.401Z,9.88
2018-04-16T05:19:35.464Z,9.95
2018-04-16T05:20:35.396Z,10.01
2018-04-16T05:21:35.395Z,10
2018-04-16T05:22:35.385Z,9.99
2018-04-16T05:23:35.670Z,9.89
2018-04-16T05:24:35.396Z,9.92
2018-04-16T05:25:35.424Z,9.83
2018-04-16T05:26:35.375Z,9.88
2018-04-16T05:27:35.386Z,9.83
2018-04-16T05:28:35.504Z,9.79
2018-04-16T05:29:35.380Z,9.9
2018-04-16T05:30:35.395Z,9.87
2018-04-16T05:31:35.396Z,9.85
2018-04-16T05:32:35.601Z,9.84
2018-04-16T05:33:35.551Z,9.89
2018-04-16T05:34:35.565Z,9.89
2018-04-16T05:35:35.388Z,9.83
2018-04-16T05:36:35.499Z,9.81
2018-04-16T05:37:35.377Z,9.84
2018-04-16T05:38:35.427Z,9.79
2018-04-16T05:39:35.460Z,9.85
2018-04-16T05:40:35.357Z,9.87
2018-04-16T05:41:35.366Z,9.83
2018-04-16T05:42:35.358Z,9.85
2018-04-16T05:43:35.341Z,9.88
2018-04-16T05:44:35.386Z,9.85
2018-04-16T05:45:35.411Z,9.85
2018-04-16T05:46:35.350Z,9.94
2018-04-16T05:47:35.395Z,9.96
2018-04-16T05:48:35.357Z,9.92
2018-04-16T05:49:35.400Z,9.87
2018-04-16T05:50:35.365Z,9.8
2018-04-16T05:51:35.358Z,9.88
2018-04-16T05:52:35.343Z,9.83
2018-04-16T05:53:35.336Z,9.83
2018-04-16T05:54:35.384Z,9.93
2018-04-16T05:55:35.353Z,9.86
2018-04-16T05:56:35.345Z,9.91
2018-04-16T05:57:35.338Z,9.9
2018-04-16T05:58:35.404Z,9.94
2018-04-16T05:59:35.390Z,9.94
2018-04-16T06:00:35.378Z,9.96
2018-04-16T06:01:35.323Z,9.95
2018-04-16T06:02:35.411Z,9.97
2018-04-16T06:03:35.332Z,10.14
2018-04-16T06:04:35.388Z,10.12
2018-04-16T06:05:35.341Z,10.14
2018-04-16T06:06:35.620Z,10.1
2018-04-16T06:07:35.365Z,10.15
2018-04-16T06:08:35.326Z,10.07
2018-04-16T06:09:35.466Z,10.15
2018-04-16T06:10:35.361Z,10.16
2018-04-16T06:11:35.463Z,10.1
2018-04-16T06:12:35.335Z,10.19
2018-04-16T06:13:35.604Z,10.28
2018-04-16T06:14:35.393Z,10.23
2018-04-16T06:15:35.333Z,10.27
2018-04-16T06:16:35.369Z,10.27
2018-04-16T06:17:35.347Z,10.25
2018-04-16T06:18:35.335Z,10.27
2018-04-16T06:19:35.296Z,10.29
2018-04-16T06:20:35.485Z,10.3
2018-04-16T06:21:35.316Z,10.36
2018-04-16T06:22:35.342Z,10.3
2018-04-16T06:23:35.345Z,10.28
2018-04-16T06:24:35.295Z,10.31
2018-04-16T06:25:35.333Z,10.32
2018-04-16T06:26:35.288Z,10.34
2018-04-16T06:27:35.297Z,10.36
2018-04-16T06:28:35.332Z,10.38
2018-04-16T06:29:35.286Z,10.37
2018-04-16T06:30:35.363Z,10.35
2018-04-16T06:31:35.270Z,10.41
2018-04-16T06:32:35.315Z,10.42
2018-04-16T06:33:35.454Z,10.41
2018-04-16T06:34:35.327Z,10.4
2018-04-16T06:35:35.563Z,10.37
2018-04-16T06:36:35.324Z,10.35
2018-04-16T06:37:35.308Z,10.41
2018-04-16T06:38:35.318Z,10.41
2018-04-16T06:39:35.300Z,10.38
2018-04-16T06:40:35.329Z,10.39
2018-04-16T06:41:35.318Z,10.4
2018-04-16T06:42:35.300Z,10.37
2018-04-16T06:43:35.315Z,10.36
2018-04-16T06:44:35.324Z,10.41
2018-04-16T06:45:35.365Z,10.35
2018-04-16T06:46:35.304Z,10.4
2018-04-16T06:47:35.257Z,10.41
2018-04-16T06:48:35.308Z,10.37
2018-04-16T06:49:35.258Z,10.36
2018-04-16T06:50:35.371Z,10.43
2018-04-16T06:51:35.265Z,10.45
2018-04-16T06:52:35.269Z,10.37
2018-04-16T06:53:35.270Z,10.38
2018-04-16T06:54:35.294Z,10.43
2018-04-16T06:55:35.290Z,10.41
2018-04-16T06:56:35.278Z,10.39
2018-04-16T06:57:35.249Z,10.41
2018-04-16T06:58:35.283Z,10.45
2018-04-16T06:59:35.301Z,10.54
2018-04-16T07:00:35.337Z,10.46
2018-04-16T07:01:35.280Z,10.47
2018-04-16T07:02:35.261Z,10.45
2018-04-16T07:03:35.261Z,10.48
2018-04-16T07:04:35.273Z,10.45
2018-04-16T07:05:35.318Z,10.48
2018-04-16T07:06:35.264Z,10.5
2018-04-16T07:07:35.251Z,10.49
2018-04-16T07:08:35.251Z,10.49
2018-04-16T07:09:35.260Z,10.45
2018-04-16T07:10:35.289Z,10.47
2018-04-16T07:11:35.322Z,10.4
2018-04-16T07:12:35.245Z,10.42
2018-04-16T07:13:35.240Z,10.5
2018-04-16T07:14:35.253Z,10.48
2018-04-16T07:15:35.234Z,10.48
2018-04-16T07:16:35.237Z,10.49
2018-04-16T07:17:35.272Z,10.46
2018-04-16T07:18:35.236Z,10.41
2018-04-16T07:19:35.303Z,10.48
2018-04-16T07:20:35.233Z,10.37
2018-04-16T07:21:35.381Z,10.38
2018-04-16T07:22:35.216Z,10.4
2018-04-16T07:23:35.236Z,10.46
2018-04-16T07:24:35.223Z,10.3
2018-04-16T07:25:35.219Z,10.23
2018-04-16T07:26:35.319Z,10.32
2018-04-16T07:27:35.277Z,10.33
2018-04-16T07:28:35.195Z,10.5
2018-04-16T07:29:35.205Z,10.46
2018-04-16T07:30:35.247Z,10.45
2018-04-16T07:31:35.210Z,10.47
2018-04-16T07:32:35.185Z,10.47
2018-04-16T07:33:35.523Z,10.46
2018-04-16T07:34:35.307Z,10.44
2018-04-16T07:35:35.286Z,10.38
2018-04-16T07:36:35.193Z,10.48
2018-04-16T07:37:35.303Z,10.45
2018-04-16T07:38:35.236Z,10.5
2018-04-16T07:39:35.207Z,10.56
2018-04-16T07:40:35.200Z,10.55
2018-04-16T07:41:35.179Z,10.43
2018-04-16T07:42:35.249Z,10.49
2018-04-16T07:43:35.188Z,10.39
2018-04-16T07:44:35.195Z,10.38
2018-04-16T07:45:35.314Z,10.56
2018-04-16T07:46:35.178Z,10.51
2018-04-16T07:47:35.168Z,10.59
2018-04-16T07:48:35.179Z,10.4
2018-04-16T07:49:35.181Z,10.43
2018-04-16T07:50:35.201Z,10.37
2018-04-16T07:51:35.173Z,10.39
2018-04-16T07:52:35.200Z,10.48
2018-04-16T07:53:35.171Z,10.47
2018-04-16T07:54:35.178Z,10.44
2018-04-16T07:55:35.324Z,10.46
2018-04-16T07:56:35.243Z,10.51
2018-04-16T07:57:35.223Z,10.39
2018-04-16T07:58:35.185Z,10.36
2018-04-16T07:59:35.211Z,10.37
2018-04-16T08:00:35.196Z,10.48
2018-04-16T08:01:35.160Z,10.54
2018-04-16T08:02:35.181Z,10.54
2018-04-16T08:03:35.142Z,10.49
2018-04-16T08:04:35.179Z,10.45
2018-04-16T08:05:35.158Z,10.38
2018-04-16T08:06:35.383Z,10.32
2018-04-16T08:07:35.166Z,10.15
2018-04-16T08:08:35.172Z,10.15
2018-04-16T08:09:35.168Z,10.3
2018-04-16T08:10:35.163Z,10.16
2018-04-16T08:11:35.132Z,10.19
2018-04-16T08:12:35.435Z,10.26
2018-04-16T08:13:35.130Z,10.3
2018-04-16T08:14:35.143Z,10.38
2018-04-16T08:15:35.159Z,10.24
2018-04-16T08:16:35.332Z,10.18
2018-04-16T08:17:35.203Z,10.12
2018-04-16T08:18:35.171Z,9.92
2018-04-16T08:19:35.151Z,9.99
2018-04-16T08:20:35.159Z,9.98
2018-04-16T08:21:35.153Z,10.07
2018-04-16T08:22:35.159Z,10.14
2018-04-16T08:23:35.184Z,10.12
2018-04-16T08:24:35.136Z,10.09
2018-04-16T08:25:35.153Z,10.06
2018-04-16T08:26:35.148Z,10.01
2018-04-16T08:27:35.308Z,9.48
2018-04-16T08:28:35.185Z,9.66
2018-04-16T08:29:35.153Z,9.87
2018-04-16T08:30:35.254Z,10.01
2018-04-16T08:31:35.129Z,10.04
2018-04-16T08:32:35.164Z,9.93
2018-04-16T08:33:35.111Z,10.05
2018-04-16T08:34:35.114Z,9.81
2018-04-16T08:35:35.119Z,9.3
2018-04-16T08:36:35.119Z,9.13
2018-04-16T08:37:35.221Z,8.94
2018-04-16T08:38:35.173Z,9.02
2018-04-16T08:39:35.157Z,9.35
2018-04-16T08:40:35.153Z,9.45
2018-04-16T08:41:35.139Z,9.33
2018-04-16T08:42:35.193Z,9.29
2018-04-16T08:43:35.096Z,9.02
2018-04-16T08:44:35.140Z,8.89
2018-04-16T08:45:35.142Z,8.94
2018-04-16T08:46:35.160Z,9.04
2018-04-16T08:47:35.121Z,9.15
2018-04-16T08:48:35.109Z,8.98
2018-04-16T08:49:35.157Z,9.1
2018-04-16T08:50:35.100Z,9.14
2018-04-16T08:51:35.110Z,9.3
2018-04-16T08:52:35.370Z,9.37
2018-04-16T08:53:35.111Z,9.29
2018-04-16T08:54:35.084Z,9.06
2018-04-16T08:55:35.098Z,9.17
2018-04-16T08:56:35.058Z,9.29
2018-04-16T08:57:35.272Z,9.43
2018-04-16T08:58:35.060Z,9.13
2018-04-16T08:59:35.330Z,9.08
2018-04-16T09:00:35.556Z,9.14
2018-04-16T09:01:35.073Z,9.09
2018-04-16T09:02:35.133Z,8.9
2018-04-16T09:03:35.098Z,8.74
2018-04-16T09:04:35.121Z,8.58
2018-04-16T09:05:35.068Z,8.7
2018-04-16T09:06:35.066Z,8.42
2018-04-16T09:07:35.094Z,8.27
2018-04-16T09:08:35.096Z,8.27
2018-04-16T09:09:35.072Z,8.35
2018-04-16T09:10:35.074Z,8.13
2018-04-16T09:11:35.069Z,8.25
2018-04-16T09:12:35.068Z,8.26
2018-04-16T09:13:35.056Z,8.23
2018-04-16T09:14:35.045Z,8.38
2018-04-16T09:15:35.046Z,8.49
2018-04-16T09:16:35.044Z,8.31
2018-04-16T09:17:35.147Z,8.37
2018-04-16T09:18:35.056Z,8.2
2018-04-16T09:19:35.155Z,8.25
2018-04-16T09:20:35.172Z,8.34
2018-04-16T09:21:35.040Z,8.32
2018-04-16T09:22:35.088Z,8.28
2018-04-16T09:23:35.046Z,8.41
2018-04-16T09:24:35.029Z,8.34
2018-04-16T09:25:35.052Z,8.21
2018-04-16T09:26:35.085Z,7.98
2018-04-16T09:27:35.358Z,8.05
2018-04-16T09:28:35.102Z,8.2
2018-04-16T09:29:35.079Z,7.88
2018-04-16T09:30:35.033Z,7.98
2018-04-16T09:31:35.044Z,7.96
2018-04-16T09:32:35.084Z,7.99
2018-04-16T09:33:35.069Z,7.85
2018-04-16T09:34:35.122Z,7.97
2018-04-16T09:35:35.087Z,7.97
2018-04-16T09:36:35.139Z,8.23
2018-04-16T09:37:35.269Z,8.25
2018-04-16T09:38:35.150Z,8.41
2018-04-16T09:39:35.407Z,8.2
2018-04-16T09:40:35.065Z,8.43
2018-04-16T09:41:35.013Z,8.56
2018-04-16T09:42:35.192Z,8.6
2018-04-16T09:43:35.292Z,8.48
2018-04-16T09:44:35.100Z,8.4
2018-04-16T09:45:35.137Z,8.23
2018-04-16T09:46:35.130Z,8.23
2018-04-16T09:47:35.021Z,8.21
2018-04-16T09:48:35.037Z,8.41
2018-04-16T09:49:35.061Z,8.25
2018-04-16T09:50:35.097Z,8.13
2018-04-16T09:51:35.015Z,8.19
2018-04-16T09:52:34.985Z,8.43
2018-04-16T09:53:35.042Z,8.31
2018-04-16T09:54:35.037Z,8.49
2018-04-16T09:55:35.211Z,8.42
2018-04-16T09:56:35.172Z,8.24
2018-04-16T09:57:35.194Z,8.33
2018-04-16T09:58:35.035Z,8.5
2018-04-16T09:59:35.087Z,8.02
2018-04-16T10:00:35.131Z,7.99
2018-04-16T10:01:35.105Z,7.9
2018-04-16T10:02:35.017Z,7.99
2018-04-16T10:03:35.012Z,7.93
2018-04-16T10:04:34.978Z,7.85
2018-04-16T10:05:34.970Z,7.85
2018-04-16T10:06:35.019Z,7.81
2018-04-16T10:07:34.972Z,7.88
2018-04-16T10:08:35.055Z,7.95
2018-04-16T10:09:34.962Z,7.78
2018-04-16T10:10:34.995Z,8.08
2018-04-16T10:11:34.953Z,8.14
2018-04-16T10:12:35.077Z,8.17
2018-04-16T10:13:34.993Z,7.99
2018-04-16T10:14:34.976Z,8.09
2018-04-16T10:15:34.973Z,8.09
2018-04-16T10:16:35.030Z,7.93
2018-04-16T10:17:34.959Z,7.96
2018-04-16T10:18:34.976Z,7.87
2018-04-16T10:19:34.964Z,7.86
2018-04-16T10:20:34.965Z,7.6
2018-04-16T10:21:35.054Z,7.51
2018-04-16T10:22:35.037Z,7.62
2018-04-16T10:23:35.015Z,7.5
2018-04-16T10:24:35.002Z,7.65
2018-04-16T10:25:34.999Z,7.34
2018-04-16T10:26:35.111Z,7.59
2018-04-16T10:27:35.193Z,7.46
2018-04-16T10:28:35.106Z,7.5
2018-04-16T10:29:35.017Z,7.64
2018-04-16T10:30:34.945Z,7.79
2018-04-16T10:31:34.986Z,7.52
2018-04-16T10:32:35.017Z,7.39
2018-04-16T10:33:35.160Z,7.34
2018-04-16T10:34:35.039Z,7.35
2018-04-16T10:35:35.027Z,7.23
2018-04-16T10:36:34.954Z,7.24
2018-04-16T10:37:34.957Z,7.25
2018-04-16T10:38:34.985Z,7.23
2018-04-16T10:39:35.182Z,7.44
2018-04-16T10:40:34.956Z,7.53
2018-04-16T10:41:34.950Z,7.62
2018-04-16T10:42:34.968Z,7.68
2018-04-16T10:43:35.071Z,7.8
2018-04-16T10:44:35.002Z,7.9
2018-04-16T10:45:34.931Z,7.43
2018-04-16T10:46:35.006Z,7.53
2018-04-16T10:47:35.154Z,7.45
2018-04-16T10:48:34.964Z,7.4
2018-04-16T10:49:34.955Z,7.31
2018-04-16T10:50:34.982Z,7.33
2018-04-16T10:51:35.032Z,7.4
2018-04-16T10:52:34.922Z,7.5
2018-04-16T10:53:34.930Z,7.52
2018-04-16T10:54:35.083Z,6.6
2018-04-16T10:55:35.248Z,6.7
2018-04-16T10:56:34.914Z,6.75
2018-04-16T10:57:35.080Z,7.08
2018-04-16T10:58:35.033Z,7.28
2018-04-16T10:59:34.946Z,7.16
2018-04-16T11:00:34.959Z,7.22
2018-04-16T11:01:35.076Z,7.15
2018-04-16T11:02:34.956Z,7.21
2018-04-16T11:03:34.910Z,7.36
2018-04-16T11:04:35.088Z,7.31
2018-04-16T11:05:34.907Z,6.78
2018-04-16T11:06:34.894Z,6.89
2018-04-16T11:07:34.920Z,7.04
2018-04-16T11:08:35.082Z,7.32
2018-04-16T11:09:34.907Z,7.26
2018-04-16T11:10:34.958Z,7.19
2018-04-16T11:11:34.905Z,7.07
2018-04-16T11:12:34.932Z,7.09
2018-04-16T11:13:34.895Z,7.19
2018-04-16T11:14:34.937Z,7.19
2018-04-16T11:15:34.912Z,7.04
2018-04-16T11:16:34.909Z,6.93
2018-04-16T11:17:34.900Z,7.2
2018-04-16T11:18:34.992Z,7.29
2018-04-16T11:19:34.913Z,6.93
2018-04-16T11:20:34.901Z,6.77
2018-04-16T11:21:34.932Z,6.84
2018-04-16T11:22:34.924Z,6.58
2018-04-16T11:23:34.896Z,6.62
2018-04-16T11:24:34.963Z,6.82
2018-04-16T11:25:34.921Z,6.81
2018-04-16T11:26:34.883Z,6.98
2018-04-16T11:27:34.889Z,7.05
2018-04-16T11:28:35.104Z,7.15
2018-04-16T11:29:34.923Z,6.88
2018-04-16T11:30:34.923Z,7.2
2018-04-16T11:31:34.889Z,7.13
2018-04-16T11:32:34.884Z,7.08
2018-04-16T11:33:34.950Z,7.21
2018-04-16T11:34:34.927Z,7.12
2018-04-16T11:35:35.003Z,7.12
2018-04-16T11:36:34.918Z,7.18
2018-04-16T11:37:34.847Z,7.02
2018-04-16T11:38:34.847Z,7.06
2018-04-16T11:39:34.967Z,7.1
2018-04-16T11:40:34.849Z,7.08
2018-04-16T11:41:35.106Z,7.07
2018-04-16T11:42:34.845Z,7.18
2018-04-16T11:43:34.895Z,7.13
2018-04-16T11:44:34.841Z,7.21
2018-04-16T11:45:35.080Z,7.16
2018-04-16T11:46:34.857Z,7.16
2018-04-16T11:47:35.210Z,7.15
2018-04-16T11:48:35.493Z,6.99
2018-04-16T11:49:34.978Z,7.23
2018-04-16T11:50:34.934Z,7.18
2018-04-16T11:51:34.852Z,7.18
2018-04-16T11:52:34.912Z,7.18
2018-04-16T11:53:34.834Z,7.22
2018-04-16T11:54:34.882Z,7.18
2018-04-16T11:55:34.855Z,7.16
2018-04-16T11:56:34.823Z,7.08
2018-04-16T11:57:35.280Z,7.17
2018-04-16T11:58:34.912Z,7.45
2018-04-16T11:59:34.812Z,7.39
2018-04-16T12:00:34.830Z,7.29
2018-04-16T12:01:34.844Z,7.31
2018-04-16T12:02:34.831Z,7.33
2018-04-16T12:03:34.815Z,7.49
2018-04-16T12:04:35.522Z,7.43
2018-04-16T12:05:34.846Z,7.32
2018-04-16T12:06:34.992Z,7.53
2018-04-16T12:07:34.797Z,7.47
2018-04-16T12:08:34.936Z,7.37
2018-04-16T12:09:34.870Z,7.49
2018-04-16T12:10:34.863Z,7.43
2018-04-16T12:11:34.909Z,7.46
2018-04-16T12:12:34.838Z,7.43
2018-04-16T12:13:34.799Z,7.55
2018-04-16T12:14:34.806Z,7.65
2018-04-16T12:15:34.787Z,7.57
2018-04-16T12:16:35.136Z,7.79
2018-04-16T12:17:34.792Z,7.7
2018-04-16T12:18:34.795Z,7.77
2018-04-16T12:19:34.802Z,7.78
2018-04-16T12:20:34.820Z,7.63
2018-04-16T12:21:34.804Z,7.84
2018-04-16T12:22:34.797Z,7.71
2018-04-16T12:23:34.962Z,7.59
2018-04-16T12:24:34.904Z,7.58
2018-04-16T12:25:34.829Z,7.66
2018-04-16T12:26:34.872Z,7.86
2018-04-16T12:27:34.807Z,7.86
2018-04-16T12:28:34.794Z,7.89
2018-04-16T12:29:34.908Z,7.9
2018-04-16T12:30:34.863Z,7.99
2018-04-16T12:31:34.896Z,7.87
2018-04-16T12:32:34.854Z,7.85
2018-04-16T12:33:34.786Z,8.15
2018-04-16T12:34:34.815Z,8.09
2018-04-16T12:35:34.810Z,8.18
2018-04-16T12:36:34.813Z,7.95
2018-04-16T12:37:34.809Z,7.88
2018-04-16T12:38:34.838Z,7.86
2018-04-16T12:39:34.773Z,7.77
2018-04-16T12:40:34.848Z,7.9
2018-04-16T12:41:35.030Z,8.04
2018-04-16T12:42:34.991Z,7.99
2018-04-16T12:43:34.768Z,7.76
2018-04-16T12:44:34.795Z,7.84
2018-04-16T12:45:34.844Z,7.89
2018-04-16T12:46:34.773Z,7.62
2018-04-16T12:47:34.955Z,7.53
2018-04-16T12:48:34.775Z,7.53
2018-04-16T12:49:34.836Z,7.64
2018-04-16T12:50:34.756Z,7.5
2018-04-16T12:51:34.795Z,7.74
2018-04-16T12:52:34.740Z,7.72
2018-04-16T12:53:34.859Z,7.76
2018-04-16T12:54:34.763Z,7.73
2018-04-16T12:55:34.766Z,7.78
2018-04-16T12:56:34.825Z,7.98
2018-04-16T12:57:34.874Z,7.89
2018-04-16T12:58:34.780Z,7.86
2018-04-16T12:59:34.774Z,7.87
2018-04-16T13:00:34.798Z,7.89
2018-04-16T13:01:34.743Z,7.99
2018-04-16T13:02:34.744Z,7.83
2018-04-16T13:03:34.840Z,8
2018-04-16T13:04:34.757Z,8.03
2018-04-16T13:05:34.743Z,7.98
2018-04-16T13:06:34.751Z,7.88
2018-04-16T13:07:34.726Z,7.96